Time;durP1;ratioP1;P1;durP2;ratioP2;P2;SDS_P1;SDS_P2;PMS_P1;PMS_P2;Temp;Humidity;BMP_temperature;BMP_pressure;BME280_temperature;BME280_humidity;BME280_pressure;Samples;Min_cycle;Max_cycle;Signal;HPM_P1;HPM_P2
2022/12/16 02:09:03;;;;;;;;;;;;;;;;;;7358658;19;19922;-82
2022/12/16 02:11:28;;;;;;;;;;;;;;;;;;7386844;19;19979;-83
2022/12/16 02:13:53;;;;;;;;;;;;;;;;;;7394113;19;19938;-82
2022/12/16 02:16:18;;;;;;;;;;;;;;;;;;7395563;19;19931;-81
2022/12/16 02:18:43;;;;;;;;;;;;;;;;;;7398571;19;20002;-79
2022/12/16 02:21:08;;;;;;;;;;;;;;;;;;7396229;19;19933;-81
2022/12/16 02:23:34;;;;;;;;;;;;;;;;;;7393903;19;19950;-81
2022/12/16 02:25:59;;;;;;;;;;;;;;;;;;7398316;19;19919;-81
2022/12/16 02:28:24;;;;;;;;;;;;;;;;;;7401114;19;19949;-83
2022/12/16 02:30:50;;;;;;;;;;;;;;;;;;7396517;19;19938;-80
2022/12/16 02:33:15;;;;;;;;;;;;;;;;;;7399518;19;19973;-81
2022/12/16 02:35:40;;;;;;;;;;;;;;;;;;7395976;19;19983;-83
2022/12/16 02:38:07;;;;;;;;;;;;;;;;;;7386827;19;19915;-80
2022/12/16 02:40:32;;;;;;;;;;;;;;;;;;7315460;19;20210;-81
2022/12/16 02:42:57;;;;;;;;;;;;;;;;;;7316639;19;20265;-80
2022/12/16 02:45:22;;;;;;;;;;;;;;;;;;7320519;19;19922;-80
2022/12/16 02:47:47;;;;;;;;;;;;;;;;;;7315837;19;20264;-78
2022/12/16 02:50:13;;;;;;;;;;;;;;;;;;7326161;19;19918;-80
2022/12/16 02:52:38;;;;;;;;;;;;;;;;;;7323221;19;19926;-80
2022/12/16 02:55:03;;;;;;;;;;;;;;;;;;7317298;19;20215;-78
2022/12/16 02:57:28;;;;;;;;;;;;;;;;;;7321541;19;20050;-80
2022/12/16 02:59:54;;;;;;;;;;;;;;;;;;7319434;19;20193;-79
2022/12/16 03:02:19;;;;;;;;;;;;;;;;;;7316628;19;19974;-80
2022/12/16 03:04:44;;;;;;;;;;;;;;;;;;7323498;19;19930;-81
2022/12/16 03:07:09;;;;;;;;;;;;;;;;;;7314478;19;19956;-82
2022/12/16 03:09:34;;;;;;;;;;;;;;;;;;7320842;19;19922;-80
2022/12/16 03:11:59;;;;;;;;;;;;;;;;;;7310163;19;19923;-81
2022/12/16 03:14:24;;;;;;;;;;;;;;;;;;7318504;19;19914;-80
2022/12/16 03:16:50;;;;;;;;;;;;;;;;;;7302107;19;19919;-83
2022/12/16 03:19:15;;;;;;;;;;;;;;;;;;7254827;19;19919;-83
2022/12/16 03:21:40;;;;;;;;;;;;;;;;;;7267710;19;20488;-79
2022/12/16 03:24:06;;;;;;;;;;;;;;;;;;7263995;19;20562;-82
2022/12/16 03:26:31;;;;;;;;;;;;;;;;;;7266496;19;20316;-84
2022/12/16 03:28:56;;;;;;;;;;;;;;;;;;7254087;19;19922;-85
2022/12/16 03:31:21;;;;;;;;;;;;;;;;;;7260885;19;20110;-85
2022/12/16 03:33:46;;;;;;;;;;;;;;;;;;7256161;19;19922;-83
2022/12/16 03:36:11;;;;;;;;;;;;;;;;;;7244867;19;20670;-84
2022/12/16 03:38:36;;;;;;;;;;;;;;;;;;7291791;19;20279;-80
2022/12/16 03:41:01;;;;;;;;;;;;;;;;;;7374935;19;19915;-79
2022/12/16 03:43:27;;;;;;;;;;;;;;;;;;7375328;19;19938;-81
2022/12/16 03:45:52;;;;;;;;;;;;;;;;;;7375827;19;19941;-82
2022/12/16 03:48:19;;;;;;;;;;;;;;;;;;7375435;19;19938;-79
2022/12/16 03:50:44;;;;;;;;;;;;;;;;;;7373684;19;19930;-81
2022/12/16 03:53:09;;;;;;;;;;;;;;;;;;7374548;19;20368;-78
2022/12/16 03:55:34;;;;;;;;;;;;;;;;;;7369110;19;20009;-85
2022/12/16 03:57:59;;;;;;;;;;;;;;;;;;7375591;19;20690;-81
2022/12/16 04:00:24;;;;;;;;;;;;;;;;;;7376730;19;19910;-84
2022/12/16 04:02:50;;;;;;;;;;;;;;;;;;7373241;19;19923;-85
2022/12/16 04:05:15;;;;;;;;;;;;;;;;;;7370070;19;19986;-83
2022/12/16 04:07:40;;;;;;;;;;;;;;;;;;7373019;19;20568;-82
2022/12/16 04:10:05;;;;;;;;;;;;;;;;;;7366383;19;20354;-83
2022/12/16 04:26:11;;;;;;;;;;;;;;;;;;7369955;19;19926;-80
2022/12/16 04:28:36;;;;;;;;;;;;;;;;;;7371384;19;19915;-83
2022/12/16 04:31:01;;;;;;;;;;;;;;;;;;7372503;19;19922;-80
